Time;durP1;ratioP1;P1;durP2;ratioP2;P2;SDS_P1;SDS_P2;PMS_P1;PMS_P2;Temp;Humidity;BMP_temperature;BMP_pressure;BME280_temperature;BME280_humidity;BME280_pressure;Samples;Min_cycle;Max_cycle;Signal;HPM_P1;HPM_P2
2022/06/12 00:02:17;;;;;;;3.25;2.10;;;12.80;99.90;;;;;;5074113;28;20016;-87
2022/06/12 00:04:43;;;;;;;4.25;2.40;;;12.80;99.90;;;;;;5073882;28;20514;-87
2022/06/12 00:07:09;;;;;;;3.00;2.00;;;12.80;99.90;;;;;;5055996;28;20090;-87
2022/06/12 00:09:34;;;;;;;4.95;2.47;;;12.80;99.90;;;;;;5055890;28;20029;-87
2022/06/12 00:12:00;;;;;;;3.67;2.03;;;12.70;99.90;;;;;;5055861;28;20055;-87
2022/06/12 00:14:26;;;;;;;4.05;2.10;;;12.70;99.90;;;;;;5055790;28;20025;-87
2022/06/12 00:16:54;;;;;;;3.72;2.40;;;12.80;99.90;;;;;;5055869;28;20388;-87
2022/06/12 00:19:20;;;;;;;2.92;2.20;;;12.70;99.90;;;;;;5055826;28;20035;-87
2022/06/12 00:21:45;;;;;;;4.47;2.55;;;12.70;99.90;;;;;;5055652;28;20024;-87
2022/06/12 00:24:14;;;;;;;2.97;2.10;;;12.70;99.90;;;;;;5055690;28;20035;-87
2022/06/12 00:26:52;;;;;;;3.60;2.00;;;12.70;99.90;;;;;;5055711;28;20017;-86
2022/06/12 00:29:22;;;;;;;3.03;1.85;;;12.70;99.90;;;;;;5055695;28;20405;-87
2022/06/12 00:31:57;;;;;;;3.17;2.03;;;12.70;99.90;;;;;;5055566;28;20048;-87
2022/06/12 00:34:27;;;;;;;3.03;1.90;;;12.70;99.90;;;;;;5055782;28;20103;-87
2022/06/12 00:36:54;;;;;;;2.97;2.03;;;12.70;99.90;;;;;;5055402;28;20028;-87
2022/06/12 00:39:21;;;;;;;2.50;1.90;;;12.70;99.90;;;;;;5055351;28;20017;-87
2022/06/12 00:41:50;;;;;;;2.90;2.08;;;12.70;99.90;;;;;;5073397;28;20028;-87
2022/06/12 00:44:20;;;;;;;6.25;2.22;;;12.60;99.90;;;;;;5055362;28;20021;-87
2022/06/12 00:46:50;;;;;;;4.10;2.35;;;12.60;99.90;;;;;;5055436;28;20033;-87
2022/06/12 00:49:24;;;;;;;3.70;2.30;;;12.60;99.90;;;;;;5055566;28;20107;-87
2022/06/12 00:51:55;;;;;;;2.42;1.90;;;12.60;99.90;;;;;;5055435;28;20481;-87
2022/06/12 00:54:21;;;;;;;3.00;2.00;;;12.60;99.90;;;;;;5055307;28;20111;-87
2022/06/12 00:56:51;;;;;;;4.07;2.20;;;12.60;99.90;;;;;;5055308;28;20033;-86
2022/06/12 00:59:46;;;;;;;3.10;1.77;;;12.60;99.90;;;;;;5055267;28;20107;-87
2022/06/12 01:02:22;;;;;;;4.65;2.05;;;12.70;99.90;;;;;;5054049;28;20048;-86
2022/06/12 01:07:37;;;;;;;4.82;2.13;;;12.60;99.90;;;;;;5077445;28;20110;-85
2022/06/12 01:10:07;;;;;;;3.25;1.80;;;12.70;99.90;;;;;;5059058;28;20025;-85
2022/06/12 01:12:38;;;;;;;5.07;2.30;;;12.80;99.90;;;;;;5075216;28;20040;-85
2022/06/12 01:15:26;;;;;;;3.30;2.40;;;12.90;99.90;;;;;;5072907;28;20104;-85
2022/06/12 01:17:53;;;;;;;4.47;2.20;;;13.00;99.90;;;;;;5076547;28;20113;-85
2022/06/12 01:20:25;;;;;;;;;;;13.10;99.90;;;;;;5058157;28;20412;-85
2022/06/12 01:23:03;;;;;;;;;;;13.20;99.90;;;;;;5058836;28;19908;-85
2022/06/12 01:25:47;;;;;;;;;;;13.20;99.90;;;;;;5060572;28;19908;-85
2022/06/12 01:28:34;;;;;;;;;;;13.20;99.90;;;;;;5076493;28;19904;-85
2022/06/12 01:31:19;;;;;;;;;;;13.20;99.90;;;;;;5059048;28;19905;-85
2022/06/12 01:33:44;;;;;;;;;;;13.20;99.90;;;;;;5059417;28;19911;-85
2022/06/12 01:36:29;;;;;;;;;;;13.20;99.90;;;;;;5059129;28;19909;-85
2022/06/12 01:39:15;;;;;;;;;;;13.20;99.90;;;;;;5059308;28;19931;-85
2022/06/12 01:41:51;;;;;;;;;;;13.20;99.90;;;;;;5077548;28;19904;-85
2022/06/12 01:44:32;;;;;;;;;;;13.20;99.90;;;;;;5077188;28;20410;-85
2022/06/12 01:47:11;;;;;;;;;;;13.20;99.90;;;;;;5059443;28;19908;-85
2022/06/12 01:49:48;;;;;;;;;;;13.20;99.90;;;;;;5059341;28;19943;-85
2022/06/12 01:52:14;;;;;;;;;;;13.20;99.90;;;;;;5077200;28;20349;-85
2022/06/12 01:54:39;;;;;;;;;;;13.10;99.90;;;;;;5059078;28;19912;-85
2022/06/12 01:57:25;;;;;;;;;;;13.10;99.90;;;;;;5059278;28;19909;-85
2022/06/12 01:59:56;;;;;;;;;;;13.10;99.90;;;;;;5059205;28;19904;-85
2022/06/12 02:02:25;;;;;;;;;;;13.00;99.90;;;;;;5077107;28;19905;-85
2022/06/12 02:04:55;;;;;;;;;;;13.00;99.90;;;;;;5059270;28;19905;-84
2022/06/12 02:07:21;;;;;;;;;;;13.00;99.90;;;;;;5076886;28;20356;-85
2022/06/12 02:10:05;;;;;;;;;;;12.90;99.90;;;;;;5076921;28;19911;-85
2022/06/12 02:15:38;;;;;;;;;;;12.90;99.90;;;;;;5078242;28;19942;-85
2022/06/12 02:18:08;;;;;;;;;;;12.90;99.90;;;;;;5076535;28;19930;-85
2022/06/12 02:20:37;;;;;;;;;;;12.80;99.90;;;;;;5058767;28;19912;-85
2022/06/12 02:23:08;;;;;;;;;;;12.80;99.90;;;;;;5076720;28;19954;-85
2022/06/12 02:25:36;;;;;;;;;;;12.80;99.90;;;;;;5058482;28;19999;-85
2022/06/12 02:28:06;;;;;;;;;;;12.70;99.90;;;;;;5076744;28;20435;-85
2022/06/12 02:30:41;;;;;;;;;;;12.70;99.90;;;;;;5058580;28;20057;-85
2022/06/12 02:33:09;;;;;;;;;;;12.70;99.90;;;;;;5058347;28;19954;-85
2022/06/12 02:36:01;;;;;;;;;;;12.70;99.90;;;;;;5058762;28;19905;-85
2022/06/12 02:38:42;;;;;;;;;;;12.70;99.90;;;;;;5072561;28;19913;-85
2022/06/12 02:41:23;;;;;;;;;;;12.60;99.90;;;;;;5074146;28;19943;-84
2022/06/12 02:43:51;;;;;;;2.92;1.80;;;12.60;99.90;;;;;;5057159;28;19963;-87
2022/06/12 02:46:34;;;;;;;3.10;2.10;;;12.50;99.90;;;;;;5058243;28;20029;-87
2022/06/12 02:49:01;;;;;;;3.00;1.98;;;12.40;99.90;;;;;;5058460;28;20020;-87
2022/06/12 02:51:42;;;;;;;2.50;2.20;;;12.20;99.90;;;;;;5057886;28;20067;-87
2022/06/12 02:54:19;;;;;;;3.63;2.35;;;12.00;99.90;;;;;;5075791;28;20028;-87
2022/06/12 02:57:12;;;;;;;3.22;2.40;;;11.80;99.90;;;;;;5057397;28;20025;-87
2022/06/12 03:00:09;;;;;;;3.00;2.08;;;11.60;99.90;;;;;;5057910;28;20025;-87
2022/06/12 03:02:53;;;;;;;2.92;2.20;;;11.40;99.90;;;;;;5075252;28;20408;-87
2022/06/12 03:05:32;;;;;;;2.92;2.10;;;11.30;99.90;;;;;;5057274;28;20025;-87
2022/06/12 03:08:14;;;;;;;3.65;2.20;;;11.20;99.90;;;;;;5057361;28;20035;-86
2022/06/12 03:10:48;;;;;;;3.40;2.17;;;11.30;99.90;;;;;;5057288;28;20545;-86
2022/06/12 03:13:16;;;;;;;3.95;2.40;;;11.30;99.90;;;;;;5057306;28;20431;-87
2022/06/12 03:15:41;;;;;;;3.85;2.50;;;11.30;99.90;;;;;;5040962;28;20401;-86
2022/06/12 03:18:13;;;;;;;3.80;2.25;;;11.30;99.90;;;;;;5056981;28;20028;-86
2022/06/12 03:21:05;;;;;;;4.70;2.55;;;11.30;99.90;;;;;;5057017;28;20489;-87
2022/06/12 03:23:52;;;;;;;3.75;2.40;;;11.30;99.90;;;;;;5053982;28;20032;-85
2022/06/12 03:26:43;;;;;;;3.15;2.00;;;11.30;99.90;;;;;;5056985;28;20473;-85
2022/06/12 03:29:23;;;;;;;5.07;1.83;;;11.40;99.90;;;;;;5056628;28;20037;-85
2022/06/12 03:32:06;;;;;;;3.38;2.33;;;11.40;99.90;;;;;;5056916;28;20090;-86
2022/06/12 03:35:23;;;;;;;2.85;2.42;;;11.50;99.90;;;;;;5040158;28;20032;-87
2022/06/12 03:38:07;;;;;;;2.53;1.80;;;11.50;99.90;;;;;;5074796;28;20390;-85
2022/06/12 03:41:00;;;;;;;2.38;1.80;;;11.50;99.90;;;;;;5056893;28;20404;-85
2022/06/12 03:43:36;;;;;;;3.88;1.90;;;11.60;99.90;;;;;;5056618;28;20032;-85
2022/06/12 03:46:24;;;;;;;2.60;1.90;;;11.60;99.90;;;;;;5074513;28;20030;-85
2022/06/12 03:49:26;;;;;;;2.35;1.83;;;11.60;99.90;;;;;;5056552;28;20028;-85
2022/06/12 03:52:04;;;;;;;3.00;1.90;;;11.60;99.90;;;;;;5056349;28;20021;-86
2022/06/12 03:54:55;;;;;;;4.47;2.05;;;11.60;99.90;;;;;;5074254;28;20047;-85
2022/06/12 04:00:31;;;;;;;3.10;2.15;;;11.70;99.90;;;;;;5074495;28;19943;-84
2022/06/12 04:03:03;;;;;;;2.70;2.10;;;11.70;99.90;;;;;;5056130;28;20016;-84
2022/06/12 04:05:35;;;;;;;3.75;2.20;;;11.70;99.90;;;;;;5073975;28;20024;-84
2022/06/12 04:08:02;;;;;;;6.05;2.20;;;11.70;99.90;;;;;;5056292;28;20070;-84
2022/06/12 04:10:32;;;;;;;2.95;2.30;;;11.60;99.90;;;;;;5055877;28;20027;-84
2022/06/12 04:12:58;;;;;;;2.33;1.73;;;11.60;99.90;;;;;;5056419;28;20082;-84
2022/06/12 04:15:35;;;;;;;2.97;2.17;;;11.60;99.90;;;;;;5073797;28;20366;-84
2022/06/12 04:18:01;;;;;;;3.22;2.25;;;11.60;99.90;;;;;;5073793;28;20518;-84
2022/06/12 04:21:01;;;;;;;3.13;2.15;;;11.60;99.90;;;;;;5055844;28;20115;-84
2022/06/12 04:23:52;;;;;;;3.20;2.22;;;11.70;99.90;;;;;;5073106;28;20043;-84
2022/06/12 04:26:41;;;;;;;4.63;2.13;;;11.70;99.90;;;;;;5056381;28;20021;-84
2022/06/12 04:29:12;;;;;;;4.10;2.50;;;11.70;99.90;;;;;;5047908;28;20025;-84
2022/06/12 04:31:41;;;;;;;3.35;2.63;;;11.70;99.90;;;;;;5055763;28;20071;-84
2022/06/12 04:34:17;;;;;;;3.13;2.33;;;11.80;99.90;;;;;;5055640;28;20175;-85
2022/06/12 04:36:46;;;;;;;6.38;2.60;;;11.80;99.90;;;;;;5055460;28;20020;-85
2022/06/12 04:39:16;;;;;;;5.88;3.17;;;11.80;99.90;;;;;;5055455;28;20040;-85
2022/06/12 04:41:43;;;;;;;5.22;2.97;;;11.70;99.90;;;;;;5073445;28;20021;-84
2022/06/12 04:44:10;;;;;;;3.78;2.58;;;11.70;99.90;;;;;;5073560;28;20035;-84
2022/06/12 04:46:40;;;;;;;4.95;2.83;;;11.70;99.90;;;;;;5055457;28;20028;-84
2022/06/12 04:49:06;;;;;;;4.43;2.90;;;11.70;99.90;;;;;;5073340;28;20078;-84
2022/06/12 04:51:32;;;;;;;4.45;3.13;;;11.70;99.90;;;;;;5055816;28;20024;-84
2022/06/12 04:53:59;;;;;;;4.88;3.17;;;11.80;99.90;;;;;;5055278;28;20051;-85
2022/06/12 04:56:31;;;;;;;5.32;3.65;;;11.80;99.90;;;;;;5055305;28;20024;-85
2022/06/12 04:58:57;;;;;;;6.60;3.67;;;11.80;99.90;;;;;;5055217;28;20052;-85
2022/06/12 05:01:24;;;;;;;5.65;3.67;;;11.80;99.90;;;;;;5055371;28;20519;-85
2022/06/12 05:03:49;;;;;;;4.80;3.60;;;11.70;99.90;;;;;;5055434;28;20081;-85
2022/06/12 05:06:17;;;;;;;6.22;4.07;;;11.70;99.90;;;;;;5055283;28;20469;-85
2022/06/12 05:08:43;;;;;;;6.05;3.60;;;11.70;99.90;;;;;;5055215;28;20033;-85
2022/06/12 05:11:09;;;;;;;6.05;3.50;;;11.80;99.90;;;;;;5055090;28;20481;-85
2022/06/12 05:13:35;;;;;;;6.25;3.22;;;11.80;99.90;;;;;;5055142;28;20035;-85
2022/06/12 05:16:01;;;;;;;5.63;3.55;;;11.90;99.90;;;;;;5073184;28;20028;-85
2022/06/12 05:18:28;;;;;;;5.53;3.53;;;11.90;99.90;;;;;;5055600;28;20063;-85
2022/06/12 05:20:55;;;;;;;6.65;4.22;;;12.00;99.90;;;;;;5055101;28;20443;-85
2022/06/12 05:23:22;;;;;;;6.53;4.65;;;12.00;99.90;;;;;;5073181;28;20082;-85
2022/06/12 05:25:48;;;;;;;10.13;4.72;;;12.10;99.90;;;;;;5055791;28;20047;-85
2022/06/12 05:28:15;;;;;;;5.05;3.92;;;12.10;99.90;;;;;;5056068;28;20439;-85
2022/06/12 05:30:42;;;;;;;5.68;4.20;;;12.10;99.90;;;;;;5055044;28;20453;-85
2022/06/12 05:33:09;;;;;;;6.35;4.13;;;12.20;99.90;;;;;;5054962;28;20025;-85
2022/06/12 05:35:37;;;;;;;5.63;4.30;;;12.30;99.90;;;;;;5055003;28;20028;-85
2022/06/12 05:38:04;;;;;;;5.43;4.03;;;12.40;99.90;;;;;;5072861;28;20522;-85
2022/06/12 05:40:36;;;;;;;6.25;4.25;;;12.40;99.90;;;;;;5054876;28;20495;-85
2022/06/12 05:43:02;;;;;;;5.13;3.63;;;12.60;99.90;;;;;;5073305;28;20160;-85
2022/06/12 05:45:30;;;;;;;4.85;3.75;;;12.70;99.90;;;;;;5054827;28;20058;-85
2022/06/12 05:48:09;;;;;;;6.10;4.30;;;12.80;99.90;;;;;;5054900;28;20029;-85
2022/06/12 05:50:45;;;;;;;9.55;4.75;;;12.90;99.90;;;;;;5072870;28;20095;-84
2022/06/12 05:53:11;;;;;;;6.32;4.63;;;13.00;99.90;;;;;;5058306;28;20374;-85
2022/06/12 05:55:36;;;;;;;7.15;5.15;;;13.10;99.90;;;;;;5058510;28;20025;-85
2022/06/12 05:58:02;;;;;;;7.13;4.85;;;13.20;99.90;;;;;;5076534;28;20034;-85
2022/06/12 06:00:33;;;;;;;7.72;5.72;;;13.40;99.90;;;;;;5058372;28;20017;-85
2022/06/12 06:02:59;;;;;;;7.85;5.03;;;13.50;99.90;;;;;;5058437;28;20036;-85
2022/06/12 06:05:26;;;;;;;11.10;6.15;;;13.50;99.90;;;;;;5058137;28;20031;-85
2022/06/12 06:07:52;;;;;;;8.45;5.60;;;13.60;99.90;;;;;;5058340;28;20020;-85
2022/06/12 06:10:22;;;;;;;7.20;5.57;;;13.70;99.90;;;;;;5076218;28;20038;-85
2022/06/12 06:12:47;;;;;;;9.60;5.72;;;13.80;99.90;;;;;;5076312;28;20024;-85
2022/06/12 06:15:13;;;;;;;8.07;6.05;;;13.90;99.90;;;;;;5057960;28;20530;-85
2022/06/12 06:17:39;;;;;;;8.93;5.97;;;14.00;99.90;;;;;;5075948;28;20060;-85
2022/06/12 06:20:06;;;;;;;8.48;6.05;;;14.10;99.90;;;;;;5058061;28;20028;-85
2022/06/12 06:22:32;;;;;;;10.10;7.18;;;14.20;99.90;;;;;;5075981;28;20488;-85
2022/06/12 06:24:59;;;;;;;8.05;6.07;;;14.30;99.90;;;;;;5057795;28;20025;-85
2022/06/12 06:27:25;;;;;;;7.43;6.50;;;14.40;99.90;;;;;;5057837;28;20552;-85
2022/06/12 06:29:56;;;;;;;6.85;6.05;;;14.60;99.90;;;;;;5076129;28;20063;-85
2022/06/12 06:32:22;;;;;;;9.80;6.47;;;14.70;99.90;;;;;;5076066;28;20473;-85
2022/06/12 06:34:48;;;;;;;7.72;6.03;;;14.80;99.90;;;;;;5057733;28;20496;-86
2022/06/12 06:37:15;;;;;;;6.22;5.25;;;14.90;99.90;;;;;;5057797;28;20052;-85
2022/06/12 06:39:42;;;;;;;8.50;5.50;;;15.10;99.90;;;;;;5058340;28;20036;-86
2022/06/12 06:42:10;;;;;;;8.50;5.72;;;15.20;99.90;;;;;;5057651;28;20112;-86
2022/06/12 06:47:20;;;;;;;8.73;5.30;;;15.40;99.90;;;;;;5075603;28;20036;-86
2022/06/12 06:49:46;;;;;;;5.88;4.72;;;15.60;99.90;;;;;;5057374;28;20028;-86
2022/06/12 06:52:12;;;;;;;6.05;4.45;;;15.80;99.90;;;;;;5053640;28;20429;-86
2022/06/12 06:54:37;;;;;;;5.88;4.10;;;16.00;99.90;;;;;;5053881;28;20031;-86
2022/06/12 06:57:04;;;;;;;6.25;4.78;;;16.20;99.90;;;;;;5053910;28;20021;-86
2022/06/12 06:59:30;;;;;;;5.30;3.90;;;16.30;99.90;;;;;;5057106;28;20017;-86
2022/06/12 07:01:56;;;;;;;6.47;4.45;;;16.50;99.90;;;;;;5037252;28;20100;-86
2022/06/12 07:04:21;;;;;;;5.57;4.72;;;16.60;99.90;;;;;;5036060;28;20051;-86
2022/06/12 07:06:47;;;;;;;6.10;4.63;;;16.70;99.90;;;;;;5037135;28;20028;-86
2022/06/12 07:09:13;;;;;;;5.95;4.20;;;16.90;99.90;;;;;;5054975;28;20025;-86
2022/06/12 07:11:39;;;;;;;8.25;5.07;;;17.00;99.90;;;;;;5074649;28;20033;-86
2022/06/12 07:14:05;;;;;;;6.22;4.40;;;17.10;99.90;;;;;;5056371;28;20021;-86
2022/06/12 07:16:32;;;;;;;5.13;4.00;;;17.30;99.90;;;;;;5056857;28;20059;-86
2022/06/12 07:19:04;;;;;;;5.80;4.32;;;17.40;99.90;;;;;;5056576;28;20477;-86
2022/06/12 07:21:30;;;;;;;4.28;3.38;;;17.50;99.90;;;;;;5074713;28;20056;-86
2022/06/12 07:23:56;;;;;;;4.72;3.90;;;17.70;99.90;;;;;;5074545;28;20067;-86
2022/06/12 07:26:30;;;;;;;5.70;4.53;;;17.80;99.90;;;;;;5056704;28;20048;-86
2022/06/12 07:28:56;;;;;;;3.70;2.70;;;17.90;99.90;;;;;;5056648;28;20029;-86
2022/06/12 07:31:23;;;;;;;3.78;2.42;;;18.10;99.90;;;;;;5056572;28;20028;-86
2022/06/12 07:33:49;;;;;;;4.40;2.42;;;18.20;99.90;;;;;;5074345;28;20102;-86
2022/06/12 07:36:16;;;;;;;3.38;2.47;;;18.40;99.90;;;;;;5056440;28;20039;-86
2022/06/12 07:38:46;;;;;;;4.30;2.50;;;18.50;99.90;;;;;;5074298;28;20032;-86
2022/06/12 07:41:13;;;;;;;5.18;2.80;;;18.60;99.90;;;;;;5056539;28;20027;-86
2022/06/12 07:43:41;;;;;;;4.97;2.60;;;18.80;99.90;;;;;;5056108;28;20035;-85
2022/06/12 07:46:09;;;;;;;3.72;2.40;;;19.00;99.50;;;;;;5056355;28;20111;-85
2022/06/12 07:48:40;;;;;;;4.28;2.90;;;19.20;99.90;;;;;;5056338;28;20020;-85
2022/06/12 07:51:10;;;;;;;5.82;3.03;;;19.40;99.80;;;;;;5056397;28;20477;-85
2022/06/12 07:53:37;;;;;;;3.43;2.60;;;19.50;99.50;;;;;;5056646;28;20032;-85
2022/06/12 07:56:05;;;;;;;3.30;2.50;;;19.70;98.90;;;;;;5056171;28;20546;-84
2022/06/12 07:58:31;;;;;;;4.78;2.72;;;19.90;98.00;;;;;;5074137;28;20021;-84
2022/06/12 08:01:01;;;;;;;4.07;2.40;;;20.00;97.70;;;;;;5056159;28;20120;-84
2022/06/12 08:03:29;;;;;;;3.58;2.50;;;20.20;97.20;;;;;;5056173;28;20480;-85
2022/06/12 08:05:55;;;;;;;3.95;2.72;;;20.40;96.60;;;;;;5056224;28;20393;-84
2022/06/12 08:08:20;;;;;;;3.33;2.10;;;20.50;95.10;;;;;;5055986;28;20027;-85
2022/06/12 08:10:46;;;;;;;3.33;2.05;;;20.60;93.60;;;;;;5056551;28;20052;-84
2022/06/12 08:13:13;;;;;;;3.00;2.20;;;20.70;93.80;;;;;;5055870;28;20032;-84
2022/06/12 08:15:40;;;;;;;;;;;20.80;93.60;;;;;;5055905;28;19919;-84
2022/06/12 08:18:06;;;;;;;;;;;21.00;93.40;;;;;;5056065;28;19908;-84
2022/06/12 08:20:33;;;;;;;;;;;21.20;93.40;;;;;;5074311;28;19904;-83
2022/06/12 08:23:04;;;;;;;;;;;21.40;92.90;;;;;;5056100;28;19904;-83
2022/06/12 08:25:32;;;;;;;;;;;21.50;92.40;;;;;;5073974;28;20319;-83
2022/06/12 08:27:58;;;;;;;;;;;21.60;92.20;;;;;;5056115;28;19908;-84
2022/06/12 08:30:24;;;;;;;;;;;21.80;90.70;;;;;;5073952;28;19905;-83
2022/06/12 08:32:50;;;;;;;;;;;21.90;90.40;;;;;;5056098;28;19909;-84
2022/06/12 08:35:18;;;;;;;;;;;22.10;90.20;;;;;;5073735;28;19908;-84
2022/06/12 08:37:44;;;;;;;;;;;22.20;90.10;;;;;;5072473;28;20380;-84
2022/06/12 08:40:23;;;;;;;;;;;22.40;86.80;;;;;;5055780;28;19912;-84
2022/06/12 08:43:08;;;;;;;;;;;22.50;85.60;;;;;;5055969;28;19927;-84
2022/06/12 08:45:41;;;;;;;;;;;22.70;84.90;;;;;;5072806;28;20257;-84
2022/06/12 08:48:36;;;;;;;;;;;22.90;83.40;;;;;;5071709;28;19904;-84
2022/06/12 08:51:35;;;;;;;;;;;22.90;82.50;;;;;;5072854;28;19954;-83
2022/06/12 08:54:23;;;;;;;;;;;23.00;82.20;;;;;;5023297;28;20289;-84
2022/06/12 08:56:52;;;;;;;;;;;23.10;81.80;;;;;;5055666;28;19931;-84
2022/06/12 08:59:46;;;;;;;;;;;23.30;81.40;;;;;;5073574;28;19904;-83
2022/06/12 09:05:41;;;;;;;;;;;23.80;80.50;;;;;;5062370;28;19914;-83
2022/06/12 09:08:16;;;;;;;;;;;23.90;76.30;;;;;;5071415;28;19904;-83
2022/06/12 09:11:17;;;;;;;;;;;24.00;73.50;;;;;;5052134;28;20002;-84
2022/06/12 09:14:09;;;;;;;;;;;24.10;74.50;;;;;;5011536;28;19906;-83
2022/06/12 09:16:46;;;;;;;;;;;24.30;71.20;;;;;;4994657;28;19956;-83
2022/06/12 09:19:34;;;;;;;;;;;24.30;71.40;;;;;;5011911;28;19916;-83
2022/06/12 09:22:22;;;;;;;;;;;24.50;70.20;;;;;;5012011;28;19916;-83
2022/06/12 09:25:11;;;;;;;;;;;24.60;65.60;;;;;;5011815;28;19905;-82
2022/06/12 09:27:51;;;;;;;;;;;24.60;69.00;;;;;;4998003;28;19906;-82
2022/06/12 09:30:33;;;;;;;;;;;24.70;68.40;;;;;;4998862;28;19910;-82
2022/06/12 09:33:32;;;;;;;;;;;24.90;68.70;;;;;;4998533;28;19920;-82
2022/06/12 09:36:51;;;;;;;3.20;2.20;;;25.00;64.40;;;;;;5058982;28;19904;-83
2022/06/12 09:39:20;;;;;;;2.03;1.20;;;25.20;63.20;;;;;;5058169;28;20048;-83
2022/06/12 09:42:01;;;;;;;5.13;2.78;;;25.30;62.10;;;;;;5077011;28;20020;-83
2022/06/12 09:44:41;;;;;;;3.10;1.83;;;25.40;61.50;;;;;;5058515;28;20536;-83
2022/06/12 09:47:17;;;;;;;4.47;3.05;;;25.50;59.30;;;;;;5058737;28;20029;-83
2022/06/12 09:49:59;;;;;;;4.05;2.03;;;25.60;57.90;;;;;;5059865;28;20393;-83
2022/06/12 09:52:36;;;;;;;3.45;1.58;;;25.60;60.60;;;;;;5058665;28;20021;-83
2022/06/12 09:55:14;;;;;;;3.78;2.15;;;25.80;59.80;;;;;;5077033;28;20477;-83
2022/06/12 09:58:20;;;;;;;3.70;1.80;;;25.90;57.80;;;;;;5077191;28;20031;-82
2022/06/12 10:01:22;;;;;;;2.42;1.50;;;25.80;58.10;;;;;;5075305;28;20028;-83
2022/06/12 10:04:10;;;;;;;2.38;1.35;;;25.90;57.30;;;;;;5059281;28;20077;-83
2022/06/12 10:06:45;;;;;;;2.22;1.20;;;26.00;56.20;;;;;;5058508;28;20020;-83
2022/06/12 10:09:20;;;;;;;1.95;1.02;;;26.10;53.80;;;;;;5058569;28;20119;-83
2022/06/12 10:11:49;;;;;;;2.72;0.93;;;26.20;50.00;;;;;;5076760;28;20028;-82
2022/06/12 10:14:18;;;;;;;1.45;0.85;;;26.20;51.40;;;;;;5058418;28;20134;-83
2022/06/12 10:16:53;;;;;;;3.15;0.90;;;26.20;51.90;;;;;;5058337;28;20023;-82
2022/06/12 10:19:24;;;;;;;1.95;1.00;;;26.20;49.50;;;;;;5058644;28;20048;-83
2022/06/12 10:21:54;;;;;;;1.60;1.00;;;26.40;51.30;;;;;;5058275;28;20519;-83
2022/06/12 10:24:20;;;;;;;3.08;1.15;;;26.40;51.50;;;;;;5058188;28;20396;-83
2022/06/12 10:27:00;;;;;;;1.25;0.77;;;26.50;49.60;;;;;;5075855;28;20014;-83
2022/06/12 10:29:27;;;;;;;2.83;1.10;;;26.60;48.20;;;;;;5057909;28;20374;-83
2022/06/12 10:32:05;;;;;;;1.55;0.98;;;26.60;50.00;;;;;;5057792;28;20025;-83
2022/06/12 10:34:33;;;;;;;3.22;1.00;;;26.70;49.70;;;;;;5076093;28;20484;-83
2022/06/12 10:37:22;;;;;;;1.42;0.80;;;26.90;48.60;;;;;;5057412;28;20058;-83
2022/06/12 10:40:22;;;;;;;3.25;1.08;;;26.90;48.30;;;;;;5075685;28;20459;-83
2022/06/12 10:43:00;;;;;;;1.85;0.82;;;26.90;47.40;;;;;;5056112;28;20021;-83
2022/06/12 10:45:35;;;;;;;1.73;0.93;;;26.90;49.10;;;;;;5057605;28;20021;-83
2022/06/12 10:48:21;;;;;;;1.45;0.88;;;26.90;46.90;;;;;;5075673;28;20039;-83
2022/06/12 10:50:57;;;;;;;1.60;0.90;;;26.90;45.80;;;;;;5075229;28;20044;-83
2022/06/12 10:53:26;;;;;;;2.13;1.10;;;26.80;46.50;;;;;;5057311;28;20440;-83
2022/06/12 10:56:10;;;;;;;1.65;0.82;;;27.00;48.70;;;;;;5057275;28;20468;-83
2022/06/12 10:59:00;;;;;;;1.95;1.00;;;27.10;46.80;;;;;;5075294;28;20039;-84
2022/06/12 11:01:47;;;;;;;11.13;7.32;;;27.20;48.80;;;;;;5075226;28;20012;-83
2022/06/12 11:04:44;;;;;;;2.75;1.05;;;27.20;47.50;;;;;;5057029;28;20020;-83
2022/06/12 11:07:31;;;;;;;8.55;5.28;;;27.30;47.90;;;;;;5057099;28;20051;-83
2022/06/12 11:10:12;;;;;;;11.13;8.25;;;27.30;46.80;;;;;;5075365;28;20476;-83
2022/06/12 11:13:02;;;;;;;2.95;1.23;;;27.30;47.10;;;;;;5057312;28;20455;-83
2022/06/12 11:16:02;;;;;;;3.13;0.90;;;27.50;47.50;;;;;;5057006;28;20029;-83
2022/06/12 11:18:37;;;;;;;;;;;27.60;47.60;;;;;;5053395;28;20033;-83
2022/06/12 11:21:21;;;;;;;2.40;0.82;;;27.50;47.30;;;;;;5056898;28;19966;-83
2022/06/12 11:24:02;;;;;;;3.03;1.00;;;27.60;47.10;;;;;;5074906;28;20023;-83
2022/06/12 11:27:01;;;;;;;1.58;0.90;;;27.80;48.80;;;;;;5056699;28;20035;-83
2022/06/12 11:29:55;;;;;;;1.70;0.82;;;27.80;47.90;;;;;;5056682;28;20020;-83
2022/06/12 11:32:33;;;;;;;1.13;0.82;;;27.80;48.60;;;;;;5075412;28;20099;-83
2022/06/12 11:35:17;;;;;;;1.38;0.95;;;27.80;48.10;;;;;;5074467;28;20066;-83
2022/06/12 11:38:01;;;;;;;1.50;1.00;;;27.60;47.10;;;;;;5056460;28;20029;-83
2022/06/12 11:40:36;;;;;;;3.95;1.23;;;27.70;46.60;;;;;;5074290;28;20033;-83
2022/06/12 11:43:04;;;;;;;1.10;0.70;;;27.70;46.60;;;;;;5056621;28;20431;-83
2022/06/12 11:45:30;;;;;;;;;;;27.80;43.70;;;;;;5056617;28;20020;-83
2022/06/12 11:48:01;;;;;;;;;;;27.80;46.70;;;;;;5056807;28;19911;-83
2022/06/12 11:50:30;;;;;;;;;;;28.00;47.90;;;;;;5074146;28;19958;-83
2022/06/12 11:52:55;;;;;;;;;;;28.20;43.70;;;;;;5056734;28;19948;-83
2022/06/12 11:55:29;;;;;;;;;;;28.20;44.50;;;;;;5056549;28;19909;-83
2022/06/12 11:58:02;;;;;;;;;;;28.20;44.80;;;;;;5056661;28;20403;-83
2022/06/12 12:00:28;;;;;;;;;;;28.10;43.90;;;;;;5074784;28;19904;-83
2022/06/12 12:03:00;;;;;;;;;;;28.10;45.50;;;;;;5074312;28;19954;-83
2022/06/12 12:05:45;;;;;;;;;;;28.10;45.50;;;;;;5056301;28;19905;-83
2022/06/12 12:08:22;;;;;;;;;;;28.20;44.70;;;;;;5056538;28;19904;-83
2022/06/12 12:11:07;;;;;;;;;;;28.30;44.80;;;;;;5073157;28;19911;-83
2022/06/12 12:13:41;;;;;;;;;;;28.40;45.40;;;;;;5056448;28;20284;-84
2022/06/12 12:16:17;;;;;;;;;;;28.50;43.40;;;;;;5075766;28;19954;-83
2022/06/12 12:18:46;;;;;;;;;;;28.60;42.60;;;;;;5056968;28;19999;-84
2022/06/12 12:21:21;;;;;;;;;;;28.70;45.00;;;;;;5056235;28;19910;-83
2022/06/12 12:23:48;;;;;;;;;;;28.70;42.70;;;;;;5056205;28;19904;-84
2022/06/12 12:26:25;;;;;;;;;;;28.80;42.40;;;;;;5057074;28;19904;-83
2022/06/12 12:28:53;;;;;;;;;;;29.00;43.10;;;;;;5074238;28;19908;-83
2022/06/12 12:31:20;;;;;;;;;;;29.10;42.90;;;;;;5073948;28;20269;-83
2022/06/12 12:33:46;;;;;;;;;;;29.20;45.40;;;;;;5074189;28;19930;-83
2022/06/12 12:41:47;;;;;;;;;;;29.50;42.90;;;;;;5074520;28;19911;-83
2022/06/12 12:44:14;;;;;;;;;;;29.50;44.50;;;;;;5055895;28;20348;-83
2022/06/12 12:46:50;;;;;;;;;;;29.50;43.00;;;;;;5073012;28;19951;-84
2022/06/12 12:49:26;;;;;;;;;;;29.50;43.20;;;;;;5074165;28;19908;-83
2022/06/12 12:52:10;;;;;;;;;;;29.50;41.90;;;;;;5055732;28;19939;-83
2022/06/12 12:54:51;;;;;;;;;;;29.50;41.90;;;;;;5072346;28;20007;-84
2022/06/12 12:57:32;;;;;;;;;;;29.50;41.90;;;;;;5055705;28;19948;-84
2022/06/12 12:59:57;;;;;;;;;;;29.40;42.10;;;;;;5055658;28;20271;-83
2022/06/12 13:02:28;;;;;;;;;;;29.40;42.20;;;;;;5076126;28;19904;-83
2022/06/12 13:05:00;;;;;;;;;;;29.50;43.40;;;;;;5077667;28;19986;-84
2022/06/12 13:07:44;;;;;;;;;;;29.70;44.00;;;;;;5077685;28;19904;-84
2022/06/12 13:10:10;;;;;;;;;;;29.90;41.60;;;;;;5077697;28;19904;-84
2022/06/12 13:12:39;;;;;;;;;;;29.90;42.30;;;;;;5077647;28;19905;-84
2022/06/12 13:15:31;;;;;;;;;;;29.80;40.40;;;;;;5059514;28;19905;-84
2022/06/12 13:18:15;;;;;;;;;;;29.80;41.00;;;;;;5036398;28;19958;-82
2022/06/12 13:20:47;;;;;;;;;;;29.90;41.00;;;;;;5076605;28;19947;-83
2022/06/12 13:23:25;;;;;;;;;;;30.10;41.60;;;;;;5075991;28;19909;-82
2022/06/12 13:25:51;;;;;;;;;;;30.20;42.70;;;;;;5077226;28;19953;-82
2022/06/12 13:28:26;;;;;;;;;;;30.30;41.20;;;;;;5077628;28;19904;-84
2022/06/12 13:30:52;;;;;;;;;;;30.30;40.00;;;;;;5078365;28;20371;-84
2022/06/12 13:33:23;;;;;;;;;;;30.40;41.20;;;;;;5077391;28;19904;-84
2022/06/12 13:35:53;;;;;;;;;;;30.30;41.60;;;;;;5059427;28;19912;-84
2022/06/12 13:38:24;;;;;;;;;;;30.20;40.50;;;;;;5060132;28;19951;-83
2022/06/12 13:40:55;;;;;;;;;;;30.20;41.00;;;;;;5077601;28;20356;-83
2022/06/12 13:43:23;;;;;;;;;;;30.30;39.20;;;;;;5079149;28;19905;-83
2022/06/12 13:45:52;;;;;;;;;;;30.40;40.90;;;;;;5078340;28;19919;-84
2022/06/12 13:48:21;;;;;;;;;;;30.40;41.40;;;;;;5077742;28;19904;-85
2022/06/12 13:50:49;;;;;;;;;;;30.50;41.20;;;;;;5058991;28;19995;-85
2022/06/12 13:53:16;;;;;;;;;;;30.70;40.00;;;;;;5077112;28;19911;-85
2022/06/12 13:55:44;;;;;;;;;;;30.70;39.30;;;;;;5059435;28;19905;-85
2022/06/12 13:58:19;;;;;;;;;;;30.70;40.50;;;;;;5076847;28;20372;-85
2022/06/12 14:00:50;;;;;;;;;;;30.70;41.30;;;;;;5076802;28;19911;-84
2022/06/12 14:03:19;;;;;;;;;;;30.90;40.20;;;;;;5076658;28;19908;-83
2022/06/12 14:05:47;;;;;;;;;;;30.90;40.40;;;;;;5076521;28;19991;-84
2022/06/12 14:08:13;;;;;;;;;;;30.80;39.30;;;;;;5058571;28;19910;-84
2022/06/12 14:10:46;;;;;;;2.17;0.88;;;30.70;39.20;;;;;;5076175;28;19908;-83
2022/06/12 14:13:22;;;;;;;1.13;0.63;;;30.80;38.90;;;;;;5075502;28;20028;-85
2022/06/12 14:15:48;;;;;;;1.40;0.85;;;30.80;39.40;;;;;;5058039;28;20480;-83